Datong, China
Current Conditions -  °F | °C
As of 9:00 AM on Thursday 23 Oct 2014 (Local Time) from ZBHH Reporting Station
Haze Haze  
Wind Chill: 48°   Ceiling: Unl
Heat Index: 48°   Visibility: 3mi
Dew Point: 37°   Wind: 2mph
Humidity: 66%   Direction: 100°E
Pressure: 30.03"   Gusts: NA
Location:  40.08°N, 113.3°E
Report Text: ZBHH 230100Z 10001MPS 5000 HZ NSC 09/03 Q1017 NOSIG
Loading
Personal Weather Stations






























Interactive Weather Map
Tropical Storm Tracking
New forecast layout! Learn more

10-Day Weather Forecast

Advertisements
Track Severe Weather on mobile